createdAt,value
2023-01-03T00:00:56.119Z,113.8
2023-01-03T00:02:57.952Z,101.8
2023-01-03T00:04:59.880Z,97
2023-01-03T00:07:01.767Z,112.4
2023-01-03T00:11:10.308Z,102.1
2023-01-03T00:13:12.226Z,98.4
2023-01-03T00:15:14.131Z,84.4
2023-01-03T00:17:16.096Z,99.3
2023-01-03T00:21:19.848Z,91.1
2023-01-03T00:23:21.770Z,87.3
2023-01-03T00:27:28.817Z,101
2023-01-03T00:29:30.708Z,94.3
2023-01-03T00:40:10.368Z,79.2
2023-01-03T00:44:14.197Z,82.7
2023-01-03T00:46:16.143Z,92
2023-01-03T00:48:17.981Z,103.5
2023-01-03T00:50:19.869Z,88.6
2023-01-03T00:52:24.990Z,103.5
2023-01-03T00:56:28.841Z,89.2
2023-01-03T00:58:30.723Z,101.9
2023-01-03T01:00:32.685Z,82.9
2023-01-03T01:02:34.761Z,80.2
2023-01-03T01:04:36.441Z,93.6
2023-01-03T01:06:41.564Z,100.5
2023-01-03T01:08:43.528Z,90.1
2023-01-03T01:10:45.389Z,110.1
2023-01-03T01:12:47.276Z,105.1
2023-01-03T01:14:49.187Z,97.8
2023-01-03T01:16:51.114Z,92.8
2023-01-03T01:18:52.987Z,95.9
2023-01-03T01:20:58.134Z,117.8
2023-01-03T01:23:00.036Z,107.5
2023-01-03T01:25:01.917Z,108.7
2023-01-03T01:26:04.515Z,87.9
2023-01-03T01:28:06.399Z,93.9
2023-01-03T01:30:08.311Z,97.4
2023-01-03T01:32:10.216Z,98.4
2023-01-03T01:38:19.178Z,102.5
2023-01-03T01:48:31.995Z,111
2023-01-03T01:50:33.899Z,86.7
2023-01-03T01:52:35.825Z,93.7
2023-01-03T01:54:37.737Z,114.7
2023-01-03T01:56:39.664Z,93.7
2023-01-03T01:58:41.584Z,84.1
2023-01-03T02:00:43.496Z,76.9
2023-01-03T02:02:48.820Z,91.6
2023-01-03T02:04:50.577Z,92.9
2023-01-03T02:10:56.380Z,79.9
2023-01-03T02:12:58.285Z,87.4
2023-01-03T02:15:00.206Z,87.5
2023-01-03T02:21:09.188Z,83.8
2023-01-03T02:22:11.743Z,85.5
2023-01-03T02:28:17.444Z,84.3
2023-01-03T02:30:22.599Z,93.6
2023-01-03T02:32:24.519Z,97.1
2023-01-03T02:34:26.441Z,75
2023-01-03T02:36:28.315Z,71.9
2023-01-03T02:38:30.223Z,81.4
2023-01-03T02:40:32.121Z,83.4
2023-01-03T02:42:34.027Z,82.6
2023-01-03T02:44:39.164Z,76.3
2023-01-03T02:46:41.120Z,68.2
2023-01-03T02:48:42.972Z,86.5
2023-01-03T02:50:44.872Z,79.8
2023-01-03T02:54:48.654Z,81.8
2023-01-03T03:00:57.549Z,103.6
2023-01-03T03:02:59.655Z,90.3
2023-01-03T03:05:01.364Z,88
2023-01-03T03:07:03.266Z,87.3
2023-01-03T03:13:12.213Z,85.1
2023-01-03T03:20:20.386Z,85.4
2023-01-03T03:22:22.276Z,103.8
2023-01-03T03:24:24.139Z,81.7
2023-01-03T03:26:29.285Z,110.1
2023-01-03T03:28:31.147Z,106
2023-01-03T03:30:33.057Z,126.3
2023-01-03T03:38:40.609Z,243.2
2023-01-03T03:44:49.523Z,206.1
2023-01-03T03:48:53.283Z,290.6
2023-01-03T03:52:57.075Z,393.7
2023-01-03T03:55:02.193Z,281.3
2023-01-03T04:01:07.931Z,227.1
2023-01-03T04:03:09.920Z,289.1
2023-01-03T04:05:11.665Z,233.7
2023-01-03T04:07:13.590Z,172.6
2023-01-03T04:11:20.575Z,174.8
2023-01-03T04:13:22.489Z,234.9
2023-01-03T04:15:51.321Z,333.2
2023-01-03T04:17:53.234Z,203.9
2023-01-03T04:19:55.118Z,240.7
2023-01-03T04:22:00.254Z,219.5
2023-01-03T04:24:02.200Z,260.6
2023-01-03T04:26:04.080Z,216.5
2023-01-03T04:28:05.969Z,199.6
2023-01-03T04:30:07.881Z,206.3
2023-01-03T04:32:09.869Z,253.7
2023-01-03T04:34:11.702Z,234.6
2023-01-03T04:40:20.624Z,189.9
2023-01-03T04:44:24.436Z,179.4
2023-01-03T04:46:26.440Z,204.8
2023-01-03T04:48:28.231Z,173.3
2023-01-03T04:50:33.395Z,191.4
2023-01-03T04:52:35.326Z,181
2023-01-03T04:54:37.232Z,179.9
2023-01-03T04:56:39.146Z,189.2
2023-01-03T04:58:41.054Z,196.5
2023-01-03T05:00:42.976Z,186
2023-01-03T05:02:44.924Z,196.5
2023-01-03T05:04:50.041Z,167.5
2023-01-03T05:06:51.945Z,167.8
2023-01-03T05:08:53.833Z,174
2023-01-03T05:09:56.414Z,234.9
2023-01-03T05:20:09.210Z,146.5
2023-01-03T05:22:11.155Z,166.8
2023-01-03T05:24:13.111Z,170.8
2023-01-03T05:26:14.986Z,144
2023-01-03T05:38:29.803Z,120.9
2023-01-03T05:48:42.664Z,140.2
2023-01-03T05:50:44.611Z,164.4
2023-01-03T05:54:48.470Z,144.8
2023-01-03T05:58:52.292Z,138.5
2023-01-03T06:00:59.022Z,154.1
2023-01-03T06:03:00.992Z,154
2023-01-03T06:05:02.871Z,126.2
2023-01-03T06:06:05.407Z,153
2023-01-03T06:08:07.335Z,133.4
2023-01-03T06:10:09.287Z,136.2
2023-01-03T06:12:11.178Z,125.5
2023-01-03T06:14:16.485Z,134.4
2023-01-03T06:16:24.322Z,109.6
2023-01-03T06:18:20.259Z,107.6
2023-01-03T06:20:22.191Z,121.2
2023-01-03T06:22:24.070Z,118.1
2023-01-03T06:24:26.132Z,126.9
2023-01-03T06:26:27.914Z,118.9
2023-01-03T06:28:33.093Z,136.6
2023-01-03T06:30:35.084Z,119.8
2023-01-03T06:32:36.942Z,103.1
2023-01-03T06:36:40.797Z,105.9
2023-01-03T06:38:42.701Z,108.5
2023-01-03T06:40:45.920Z,106.5
2023-01-03T06:42:49.804Z,115.4
2023-01-03T06:44:51.674Z,102.7
2023-01-03T06:46:53.654Z,126.6
2023-01-03T06:48:55.563Z,110.3
2023-01-03T06:50:57.560Z,120.2
2023-01-03T06:52:59.456Z,119.1
2023-01-03T06:55:01.389Z,101.2
2023-01-03T06:57:06.502Z,130.1
2023-01-03T07:02:12.982Z,100
2023-01-03T07:10:23.780Z,109.6
2023-01-03T07:14:27.643Z,107.2
2023-01-03T07:16:29.642Z,111.6
2023-01-03T07:18:31.442Z,98.3
2023-01-03T07:20:33.368Z,104.9
2023-01-03T07:22:35.259Z,109.7
2023-01-03T07:24:40.388Z,103.8
2023-01-03T07:26:42.322Z,109.7
2023-01-03T07:28:44.237Z,107.4
2023-01-03T07:30:46.306Z,97.3
2023-01-03T07:32:48.033Z,112
2023-01-03T07:34:49.976Z,111.9
2023-01-03T07:36:51.860Z,113.6
2023-01-03T07:38:56.986Z,136.8
2023-01-03T07:40:58.870Z,96.2
2023-01-03T07:45:02.700Z,100.1
2023-01-03T07:47:04.632Z,98.4
2023-01-03T07:51:08.605Z,102.2
2023-01-03T07:53:13.568Z,126
2023-01-03T07:55:15.497Z,104.3
2023-01-03T07:57:17.391Z,120.6
2023-01-03T07:59:46.218Z,120.3
2023-01-03T08:01:48.267Z,122.9
2023-01-03T08:03:50.050Z,118.4
2023-01-03T08:05:55.200Z,123
2023-01-03T08:07:57.102Z,117.3
2023-01-03T08:09:58.991Z,99.6
2023-01-03T08:12:00.890Z,113.3
2023-01-03T08:14:02.821Z,106.7
2023-01-03T08:16:04.767Z,103.5
2023-01-03T08:20:11.760Z,118.7
2023-01-03T08:22:13.657Z,100.3
2023-01-03T08:26:17.467Z,114.9
2023-01-03T08:28:19.372Z,102.2
2023-01-03T08:30:21.264Z,96.6
2023-01-03T08:32:23.202Z,101.2
2023-01-03T08:34:30.119Z,87.5
2023-01-03T08:36:30.240Z,97.8
2023-01-03T08:38:32.141Z,96.2
2023-01-03T08:40:38.196Z,87
2023-01-03T08:42:35.964Z,93.9
2023-01-03T08:44:37.891Z,86.9
2023-01-03T08:46:39.844Z,95.4
2023-01-03T08:48:44.888Z,102.6
2023-01-03T08:50:46.825Z,95.9
2023-01-03T08:52:48.710Z,88.1
2023-01-03T08:53:51.305Z,91.6
2023-01-03T08:55:53.223Z,92.2
2023-01-03T08:57:55.092Z,91
2023-01-03T08:59:56.998Z,89.9
2023-01-03T09:02:02.460Z,87.6
2023-01-03T09:04:04.135Z,88.9
2023-01-03T09:06:05.967Z,73.9
2023-01-03T09:08:07.880Z,96.3
2023-01-03T09:10:09.864Z,77.4
2023-01-03T09:12:11.705Z,88.4
2023-01-03T09:14:13.599Z,72.4
2023-01-03T09:16:18.785Z,92.5
2023-01-03T09:18:20.658Z,74.2
2023-01-03T09:20:22.701Z,81.2
2023-01-03T09:22:24.472Z,71.1
2023-01-03T09:24:26.406Z,63.9
2023-01-03T09:26:28.278Z,72.2
2023-01-03T09:28:30.204Z,73.1
2023-01-03T09:30:35.360Z,67.2
2023-01-03T09:36:41.083Z,52.1
2023-01-03T09:38:43.028Z,58.2
2023-01-03T09:40:44.935Z,65.9
2023-01-03T09:42:46.858Z,77.1
2023-01-03T09:44:52.000Z,64.6
2023-01-03T09:46:53.946Z,80.6
2023-01-03T09:48:55.860Z,56.8
2023-01-03T09:50:27.869Z,73.2
2023-01-03T09:52:00.341Z,64.3
2023-01-03T09:54:02.267Z,70.8
2023-01-03T09:56:04.186Z,64.9
2023-01-03T09:58:09.318Z,68.6
2023-01-03T10:00:11.273Z,75
2023-01-03T10:02:13.426Z,58.1
2023-01-03T10:04:15.138Z,62
2023-01-03T10:06:17.066Z,74.6
2023-01-03T10:08:19.042Z,71.8
2023-01-03T10:10:21.112Z,59.6
2023-01-03T10:12:26.121Z,69.7
2023-01-03T10:14:28.033Z,75.7
2023-01-03T10:16:30.017Z,64.4
2023-01-03T10:18:31.928Z,62.4
2023-01-03T10:20:33.884Z,73.6
2023-01-03T10:22:35.797Z,59.7
2023-01-03T10:24:37.738Z,61.7
2023-01-03T10:26:42.934Z,77.4
2023-01-03T10:28:44.854Z,71
2023-01-03T10:30:52.097Z,60.7
2023-01-03T10:32:48.710Z,63.2
2023-01-03T10:34:50.658Z,51.8
2023-01-03T10:36:52.629Z,56.3
2023-01-03T10:38:54.566Z,50.9
2023-01-03T10:40:59.751Z,64
2023-01-03T10:43:01.682Z,45.6
2023-01-03T10:45:03.628Z,44.8
2023-01-03T10:46:06.275Z,54
2023-01-03T10:48:08.156Z,53.1
2023-01-03T10:50:10.167Z,39.8
2023-01-03T10:54:17.264Z,47.1
2023-01-03T10:56:19.221Z,38.7
2023-01-03T11:00:23.157Z,39.6
2023-01-03T11:02:25.292Z,40.6
2023-01-03T11:04:27.043Z,33.2
2023-01-03T11:06:28.964Z,39.3
2023-01-03T11:08:34.152Z,52.6
2023-01-03T11:10:36.257Z,47
2023-01-03T11:12:38.043Z,33.2
2023-01-03T11:14:40.016Z,36
2023-01-03T11:16:42.066Z,32.1
2023-01-03T11:18:43.900Z,37.2
2023-01-03T11:20:45.864Z,46.9
2023-01-03T11:22:51.023Z,39.9
2023-01-03T11:24:52.988Z,31
2023-01-03T11:26:54.945Z,31.4
2023-01-03T11:28:56.915Z,40.9
2023-01-03T11:33:00.801Z,46
2023-01-03T11:37:08.074Z,33.6
2023-01-03T11:43:40.637Z,31
2023-01-03T11:45:48.322Z,26.6
2023-01-03T11:47:44.546Z,33.1
2023-01-03T11:49:49.732Z,28.4
2023-01-03T11:51:53.257Z,41.3
2023-01-03T11:53:55.151Z,36.5
2023-01-03T12:02:03.041Z,26.8
2023-01-03T12:10:14.114Z,33.8
2023-01-03T12:14:17.879Z,25.6
2023-01-03T12:16:19.893Z,25.4
2023-01-03T12:18:25.029Z,28.9
2023-01-03T12:20:26.989Z,31.9
2023-01-03T12:22:28.932Z,26.1
2023-01-03T12:24:30.928Z,23.5
2023-01-03T12:26:32.899Z,37
2023-01-03T12:28:34.842Z,21.2
2023-01-03T12:30:36.784Z,27.3
2023-01-03T12:34:43.909Z,33.7
2023-01-03T12:37:48.488Z,22.1
2023-01-03T12:43:54.362Z,24.7
2023-01-03T12:45:59.554Z,21.3
2023-01-03T13:06:22.398Z,19
2023-01-03T13:08:24.338Z,16.2
2023-01-03T13:10:26.289Z,24
2023-01-03T13:12:28.285Z,19.7
2023-01-03T13:18:37.407Z,22.6
2023-01-03T13:20:41.495Z,27.7
2023-01-03T13:26:51.416Z,24.1
2023-01-03T13:32:54.408Z,24.9
2023-01-03T13:33:57.042Z,14.8
2023-01-03T13:35:58.992Z,23.7
2023-01-03T13:38:00.935Z,23.3
2023-01-03T13:40:02.911Z,14.7
2023-01-03T13:42:08.071Z,22
2023-01-03T13:44:10.062Z,18.1
2023-01-03T13:46:12.046Z,13.6
2023-01-03T13:48:13.972Z,22.6
2023-01-03T13:50:15.935Z,21.1
2023-01-03T13:52:17.890Z,18.2
2023-01-03T13:54:19.859Z,12.5
2023-01-03T13:56:25.048Z,12.6
2023-01-03T13:58:27.035Z,33.6
2023-01-03T14:00:28.956Z,13.3
2023-01-03T14:02:31.089Z,20.1
2023-01-03T14:04:32.900Z,20.7
2023-01-03T14:06:34.883Z,15.9
2023-01-03T14:08:36.828Z,17.3
2023-01-03T14:10:42.031Z,31.5
2023-01-03T14:12:44.003Z,24.8
2023-01-03T14:14:45.973Z,12.3
2023-01-03T14:16:47.991Z,20.2
2023-01-03T14:18:49.935Z,13
2023-01-03T14:20:51.888Z,15.1
2023-01-03T14:22:53.862Z,18.3
2023-01-03T14:24:59.076Z,10.8
2023-01-03T14:27:01.025Z,16.1
2023-01-03T14:29:03.011Z,14.3
2023-01-03T14:32:07.563Z,15.8
2023-01-03T14:34:09.561Z,14.7
2023-01-03T14:36:11.530Z,18.1
2023-01-03T14:38:16.724Z,18.5
2023-01-03T14:40:18.698Z,13.2
2023-01-03T14:42:20.653Z,13.5
2023-01-03T14:46:24.598Z,12.4
2023-01-03T14:48:26.548Z,11.7
2023-01-03T14:50:28.500Z,13.3
2023-01-03T14:52:33.671Z,22.7
2023-01-03T14:54:35.653Z,7.4
2023-01-03T14:56:37.657Z,10
2023-01-03T14:58:39.675Z,13.5
2023-01-03T15:00:41.655Z,10.9
2023-01-03T15:02:43.646Z,10.1
2023-01-03T15:04:45.616Z,15.5
2023-01-03T15:06:54.209Z,18.1
2023-01-03T15:08:52.735Z,6.9
2023-01-03T15:10:54.674Z,13.1
2023-01-03T15:13:02.369Z,9.6
2023-01-03T15:14:58.600Z,15.6
2023-01-03T15:17:00.688Z,14.5
2023-01-03T15:19:02.562Z,9.6
2023-01-03T15:21:07.719Z,11.4
2023-01-03T15:23:09.692Z,21.9
2023-01-03T15:25:11.714Z,12.1
2023-01-03T15:33:49.608Z,8.6
2023-01-03T15:35:51.600Z,11
2023-01-03T15:37:53.531Z,10.5
2023-01-03T15:39:55.481Z,8.2
2023-01-03T15:42:19.673Z,16.9
2023-01-03T15:46:01.501Z,15
2023-01-03T15:48:13.455Z,10.2
2023-01-03T15:50:08.555Z,21.2
2023-01-03T15:52:10.535Z,8.2
2023-01-03T15:58:16.414Z,16
2023-01-03T16:00:18.373Z,14
2023-01-03T16:04:25.536Z,12.8
2023-01-03T16:06:27.469Z,9.7
2023-01-03T16:08:29.438Z,8.3
2023-01-03T16:10:31.418Z,8
2023-01-03T16:12:33.390Z,16.9
2023-01-03T16:14:35.365Z,21.1
2023-01-03T16:16:40.638Z,9.2
2023-01-03T16:18:42.511Z,25.7
2023-01-03T16:20:44.457Z,16.4
2023-01-03T16:22:02.458Z,19.1
2023-01-03T16:23:49.009Z,13.4
2023-01-03T16:25:50.966Z,6.9
2023-01-03T16:27:52.917Z,16.4
2023-01-03T16:29:58.225Z,15.3
2023-01-03T16:32:00.137Z,13.2
2023-01-03T16:38:05.930Z,17.5
2023-01-03T16:40:07.898Z,7
2023-01-03T16:42:09.880Z,14.1
2023-01-03T16:44:15.054Z,12.1
2023-01-03T16:46:17.065Z,9.3
2023-01-03T16:48:18.960Z,17.5
2023-01-03T16:50:20.941Z,8.6
2023-01-03T16:52:22.890Z,7.5
2023-01-03T16:54:24.839Z,7.9
2023-01-03T16:56:26.785Z,15.1
2023-01-03T16:58:31.972Z,7.8
2023-01-03T17:00:33.964Z,12.9
2023-01-03T17:02:36.163Z,7.2
2023-01-03T17:10:43.782Z,8.1
2023-01-03T17:14:50.944Z,10.7
2023-01-03T17:17:55.462Z,6.1
2023-01-03T17:20:04.333Z,7.6
2023-01-03T17:24:01.345Z,13.2
2023-01-03T17:28:08.509Z,8.9
2023-01-03T17:30:10.476Z,16
2023-01-03T17:44:29.044Z,10.6
2023-01-03T17:46:30.990Z,14.1
2023-01-03T17:52:36.863Z,18.6
2023-01-03T17:54:42.043Z,23.2
2023-01-03T18:00:47.943Z,12.3
2023-01-03T18:02:50.147Z,11.5
2023-01-03T18:08:59.124Z,10.1
2023-01-03T18:11:01.064Z,9.3
2023-01-03T18:14:05.610Z,18.5
2023-01-03T18:16:07.667Z,10.8
2023-01-03T18:18:09.543Z,17.4
2023-01-03T18:20:11.521Z,10.4
2023-01-03T18:22:16.687Z,19.1
2023-01-03T18:24:18.656Z,10.6
2023-01-03T18:26:20.619Z,13.2
2023-01-03T18:28:22.594Z,7.9
2023-01-03T18:30:24.606Z,4.7
2023-01-03T18:32:26.510Z,13.9
2023-01-03T18:34:28.500Z,12.5
2023-01-03T18:36:33.720Z,7.9
2023-01-03T18:38:35.690Z,19.7
2023-01-03T18:40:37.659Z,9.1
2023-01-03T18:42:39.634Z,16.7
2023-01-03T18:44:41.606Z,5.3
2023-01-03T18:50:57.793Z,10
2023-01-03T18:52:52.721Z,15.5
2023-01-03T18:54:54.666Z,14.2
2023-01-03T18:59:02.207Z,6.1
2023-01-03T19:01:00.580Z,5.9
2023-01-03T19:05:07.733Z,15.3
2023-01-03T19:09:11.685Z,7.1
2023-01-03T19:11:40.521Z,14.6
2023-01-03T19:13:42.491Z,6.9
2023-01-03T19:17:49.686Z,16.7
2023-01-03T19:19:51.660Z,22.1
2023-01-03T19:21:53.647Z,12.2
2023-01-03T19:25:57.591Z,6.6
2023-01-03T19:27:59.539Z,14.2
2023-01-03T19:30:01.536Z,10
2023-01-03T19:32:06.722Z,14.3
2023-01-03T19:34:08.709Z,17.1
2023-01-03T19:36:10.679Z,8.9
2023-01-03T19:44:18.536Z,13.3
2023-01-03T19:46:23.774Z,11.7
2023-01-03T19:48:25.718Z,10.3
2023-01-03T19:50:27.646Z,8.5
2023-01-03T19:52:29.668Z,7.6
2023-01-03T19:54:31.646Z,9.2
2023-01-03T19:56:33.593Z,7.3
2023-01-03T19:58:35.551Z,8.1
2023-01-03T20:00:40.751Z,10.3
2023-01-03T20:02:42.985Z,5.4
2023-01-03T20:04:44.966Z,9.7
2023-01-03T20:07:49.260Z,6.1
2023-01-03T20:09:51.223Z,16.7
2023-01-03T20:11:53.219Z,8.1
2023-01-03T20:13:58.419Z,7.7
2023-01-03T20:16:00.628Z,14.6
2023-01-03T20:24:08.260Z,8.1
2023-01-03T20:26:10.199Z,14.1
2023-01-03T20:30:17.358Z,7
2023-01-03T20:32:19.327Z,15.4
2023-01-03T20:36:23.895Z,7.7
2023-01-03T20:40:27.238Z,16.9
2023-01-03T20:42:32.459Z,5.1
2023-01-03T20:44:34.446Z,6.5
2023-01-03T20:46:36.443Z,23
2023-01-03T20:48:38.395Z,7.5
2023-01-03T20:50:40.366Z,9
2023-01-03T20:52:42.299Z,4.2
2023-01-03T20:54:44.267Z,31
2023-01-03T20:56:49.472Z,10.8
2023-01-03T20:58:51.429Z,20.1
2023-01-03T21:00:58.141Z,12
2023-01-03T21:01:56.144Z,4.9
2023-01-03T21:03:57.981Z,16.4
2023-01-03T21:05:59.928Z,11.8
2023-01-03T21:08:01.910Z,11.3
2023-01-03T21:10:07.098Z,5.4
2023-01-03T21:12:09.048Z,7.1
2023-01-03T21:14:11.053Z,6.1
2023-01-03T21:16:13.041Z,4.5
2023-01-03T21:18:14.948Z,5.9
2023-01-03T21:20:16.918Z,4.4
2023-01-03T21:22:18.887Z,6.9
2023-01-03T21:24:24.126Z,8.6
2023-01-03T21:26:26.048Z,11.4
2023-01-03T21:28:28.025Z,3.1
2023-01-03T21:30:30.015Z,11.5
2023-01-03T21:32:31.926Z,12.6
2023-01-03T21:34:33.931Z,5.1
2023-01-03T21:36:35.919Z,15.7
2023-01-03T21:38:41.085Z,14.7
2023-01-03T21:40:43.065Z,3.9
2023-01-03T21:42:45.020Z,8
2023-01-03T21:46:48.953Z,4.7
2023-01-03T21:48:50.913Z,7.3
2023-01-03T21:50:52.889Z,7.1
2023-01-03T21:52:58.074Z,10
2023-01-03T21:55:00.014Z,15.9
2023-01-03T21:57:02.023Z,8
2023-01-03T21:58:04.631Z,12.4
2023-01-03T22:00:06.573Z,11.4
2023-01-03T22:02:08.651Z,4.2
2023-01-03T22:04:10.489Z,4.6
2023-01-03T22:06:15.719Z,9.1
2023-01-03T22:08:17.701Z,6.3
2023-01-03T22:10:19.678Z,9.6
2023-01-03T22:12:21.628Z,3.7
2023-01-03T22:14:23.580Z,17.8
2023-01-03T22:16:25.687Z,23.9
2023-01-03T22:18:27.539Z,11
2023-01-03T22:20:38.206Z,9.6
2023-01-03T22:22:34.702Z,13.8
2023-01-03T22:24:36.677Z,5.3
2023-01-03T22:26:38.621Z,13.6
2023-01-03T22:28:40.597Z,7.9
2023-01-03T22:30:42.542Z,20.5
2023-01-03T22:32:44.526Z,5.2
2023-01-03T22:34:49.733Z,13.8
2023-01-03T22:36:51.717Z,9.5
2023-01-03T22:38:53.670Z,8.5
2023-01-03T22:42:57.617Z,9.8
2023-01-03T22:44:59.613Z,11.4
2023-01-03T22:47:01.561Z,14.2
2023-01-03T22:49:06.773Z,15
2023-01-03T22:51:08.717Z,5.9
2023-01-03T22:53:10.641Z,7.6
2023-01-03T22:57:41.423Z,6.4
2023-01-03T22:59:43.368Z,10.6
2023-01-03T23:01:48.729Z,14.3
2023-01-03T23:03:50.653Z,14.7
2023-01-03T23:05:52.562Z,19.7
2023-01-03T23:07:54.510Z,7.7
2023-01-03T23:09:56.491Z,4.3
2023-01-03T23:11:58.490Z,4.1
2023-01-03T23:14:00.467Z,9.5
2023-01-03T23:16:05.704Z,11
2023-01-03T23:18:07.631Z,9.5
2023-01-03T23:20:09.529Z,8.1
2023-01-03T23:22:11.510Z,5.8
2023-01-03T23:24:13.475Z,8.5
2023-01-03T23:26:15.480Z,6.5
2023-01-03T23:28:17.425Z,5.8
2023-01-03T23:30:22.704Z,14.4
2023-01-03T23:32:24.685Z,5.6
2023-01-03T23:34:26.607Z,12.4
2023-01-03T23:36:30.207Z,10
2023-01-03T23:38:32.064Z,4.5
2023-01-03T23:40:34.052Z,13.8
2023-01-03T23:42:36.024Z,9.7
2023-01-03T23:44:41.238Z,7.2
2023-01-03T23:46:43.210Z,11.5
2023-01-03T23:48:45.143Z,19.7
2023-01-03T23:49:47.763Z,11.5
2023-01-03T23:53:51.750Z,9.4
2023-01-03T23:55:53.729Z,10.8
2023-01-03T23:57:58.911Z,4.3
